sensor_id;sensor_type;location;lat;lon;timestamp;pressure;altitude;pressure_sealevel;temperature;humidity
72157;BME280;60035;52.122;5.406;2023-08-07T00:01:52;101429.56;;;12.89;100.00
72157;BME280;60035;52.122;5.406;2023-08-07T00:04:20;101412.44;;;12.88;100.00
72157;BME280;60035;52.122;5.406;2023-08-07T00:06:46;101406.44;;;12.87;100.00
72157;BME280;60035;52.122;5.406;2023-08-07T00:09:13;101429.56;;;12.87;100.00
72157;BME280;60035;52.122;5.406;2023-08-07T00:11:39;101423.56;;;12.88;100.00
72157;BME280;60035;52.122;5.406;2023-08-07T00:14:06;101426.13;;;12.88;100.00
72157;BME280;60035;52.122;5.406;2023-08-07T00:16:33;101419.28;;;12.89;100.00
72157;BME280;60035;52.122;5.406;2023-08-07T00:19:00;101417.53;;;12.89;100.00
72157;BME280;60035;52.122;5.406;2023-08-07T00:21:26;101427.81;;;12.89;100.00
72157;BME280;60035;52.122;5.406;2023-08-07T00:23:53;101426.13;;;12.88;100.00
72157;BME280;60035;52.122;5.406;2023-08-07T00:26:21;101426.06;;;12.90;100.00
72157;BME280;60035;52.122;5.406;2023-08-07T00:28:47;101420.91;;;12.91;100.00
72157;BME280;60035;52.122;5.406;2023-08-07T00:31:14;101434.53;;;12.93;100.00
72157;BME280;60035;52.122;5.406;2023-08-07T00:33:41;101432.84;;;12.94;100.00
72157;BME280;60035;52.122;5.406;2023-08-07T00:36:07;101435.34;;;12.95;100.00
72157;BME280;60035;52.122;5.406;2023-08-07T00:38:34;101426.78;;;12.95;100.00
72157;BME280;60035;52.122;5.406;2023-08-07T00:41:01;101422.50;;;12.95;100.00
72157;BME280;60035;52.122;5.406;2023-08-07T00:43:28;101430.22;;;12.95;100.00
72157;BME280;60035;52.122;5.406;2023-08-07T00:45:55;101420.81;;;12.94;100.00
72157;BME280;60035;52.122;5.406;2023-08-07T00:48:22;101423.34;;;12.96;100.00
72157;BME280;60035;52.122;5.406;2023-08-07T00:50:49;101420.81;;;12.94;100.00
72157;BME280;60035;52.122;5.406;2023-08-07T00:53:17;101416.50;;;12.95;100.00
72157;BME280;60035;52.122;5.406;2023-08-07T00:55:44;101423.38;;;12.94;100.00
72157;BME280;60035;52.122;5.406;2023-08-07T00:58:11;101416.50;;;12.95;100.00
72157;BME280;60035;52.122;5.406;2023-08-07T01:00:37;101419.94;;;12.95;100.00
72157;BME280;60035;52.122;5.406;2023-08-07T01:03:05;101417.38;;;12.95;100.00
72157;BME280;60035;52.122;5.406;2023-08-07T01:05:34;101420.75;;;12.96;100.00
72157;BME280;60035;52.122;5.406;2023-08-07T01:08:01;101425.06;;;12.95;100.00
72157;BME280;60035;52.122;5.406;2023-08-07T01:10:39;101423.34;;;12.96;100.00
72157;BME280;60035;52.122;5.406;2023-08-07T01:15:50;101418.19;;;12.96;100.00
72157;BME280;60035;52.122;5.406;2023-08-07T01:18:18;101426.78;;;12.95;100.00
72157;BME280;60035;52.122;5.406;2023-08-07T01:20:46;101430.16;;;12.97;100.00
72157;BME280;60035;52.122;5.406;2023-08-07T01:23:12;101434.50;;;12.95;100.00
72157;BME280;60035;52.122;5.406;2023-08-07T01:25:39;101424.22;;;12.95;100.00
72157;BME280;60035;52.122;5.406;2023-08-07T01:28:17;101433.66;;;12.94;100.00
72157;BME280;60035;52.122;5.406;2023-08-07T01:30:50;101429.41;;;12.93;100.00
72157;BME280;60035;52.122;5.406;2023-08-07T01:33:34;101440.50;;;12.95;100.00
72157;BME280;60035;52.122;5.406;2023-08-07T01:36:08;101428.47;;;12.96;100.00
72157;BME280;60035;52.122;5.406;2023-08-07T01:38:37;101435.31;;;12.97;100.00
72157;BME280;60035;52.122;5.406;2023-08-07T01:41:04;101440.41;;;12.98;100.00
72157;BME280;60035;52.122;5.406;2023-08-07T01:43:31;101437.00;;;12.98;100.00
72157;BME280;60035;52.122;5.406;2023-08-07T01:45:58;101440.41;;;12.98;100.00
72157;BME280;60035;52.122;5.406;2023-08-07T01:48:26;101441.22;;;12.99;100.00
72157;BME280;60035;52.122;5.406;2023-08-07T01:50:53;101442.09;;;12.99;100.00
72157;BME280;60035;52.122;5.406;2023-08-07T01:53:20;101442.03;;;13.01;100.00
72157;BME280;60035;52.122;5.406;2023-08-07T01:55:46;101442.91;;;13.00;100.00
72157;BME280;60035;52.122;5.406;2023-08-07T01:58:13;101434.38;;;12.99;100.00
72157;BME280;60035;52.122;5.406;2023-08-07T02:00:40;101445.44;;;13.02;100.00
72157;BME280;60035;52.122;5.406;2023-08-07T02:03:06;101444.66;;;12.99;100.00
72157;BME280;60035;52.122;5.406;2023-08-07T02:05:33;101436.94;;;12.99;100.00
72157;BME280;60035;52.122;5.406;2023-08-07T02:07:59;101450.63;;;13.00;100.00
72157;BME280;60035;52.122;5.406;2023-08-07T02:10:26;101445.44;;;13.02;100.00
72157;BME280;60035;52.122;5.406;2023-08-07T02:12:52;101443.78;;;13.00;100.00
72157;BME280;60035;52.122;5.406;2023-08-07T02:15:19;101448.00;;;13.02;100.00
72157;BME280;60035;52.122;5.406;2023-08-07T02:17:46;101448.81;;;13.04;100.00
72157;BME280;60035;52.122;5.406;2023-08-07T02:20:12;101452.22;;;13.04;100.00
72157;BME280;60035;52.122;5.406;2023-08-07T02:22:39;101452.16;;;13.06;100.00
72157;BME280;60035;52.122;5.406;2023-08-07T02:25:05;101464.94;;;13.09;100.00
72157;BME280;60035;52.122;5.406;2023-08-07T02:27:32;101452.97;;;13.08;100.00
72157;BME280;60035;52.122;5.406;2023-08-07T02:29:59;101450.41;;;13.08;100.00
72157;BME280;60035;52.122;5.406;2023-08-07T02:32:25;101458.13;;;13.08;100.00
72157;BME280;60035;52.122;5.406;2023-08-07T02:34:52;101453.81;;;13.08;100.00
72157;BME280;60035;52.122;5.406;2023-08-07T02:37:18;101455.44;;;13.11;100.00
72157;BME280;60035;52.122;5.406;2023-08-07T02:39:47;101462.31;;;13.10;100.00
72157;BME280;60035;52.122;5.406;2023-08-07T02:42:13;101454.63;;;13.10;100.00
72157;BME280;60035;52.122;5.406;2023-08-07T02:44:40;101453.72;;;13.11;100.00
72157;BME280;60035;52.122;5.406;2023-08-07T02:47:06;101461.34;;;13.14;100.00
72157;BME280;60035;52.122;5.406;2023-08-07T02:49:33;101462.16;;;13.15;100.00
72157;BME280;60035;52.122;5.406;2023-08-07T02:51:59;101463.91;;;13.14;100.00
72157;BME280;60035;52.122;5.406;2023-08-07T02:54:26;101456.19;;;13.14;100.00
72157;BME280;60035;52.122;5.406;2023-08-07T02:56:52;101458.00;;;13.12;100.00
72157;BME280;60035;52.122;5.406;2023-08-07T02:59:20;101463.91;;;13.14;100.00
72157;BME280;60035;52.122;5.406;2023-08-07T03:01:46;101463.13;;;13.12;100.00
72157;BME280;60035;52.122;5.406;2023-08-07T03:04:13;101465.72;;;13.11;100.00
72157;BME280;60035;52.122;5.406;2023-08-07T03:06:39;101461.50;;;13.10;100.00
72157;BME280;60035;52.122;5.406;2023-08-07T03:09:06;101455.50;;;13.09;100.00
72157;BME280;60035;52.122;5.406;2023-08-07T03:11:33;101456.44;;;13.07;100.00
72157;BME280;60035;52.122;5.406;2023-08-07T03:13:59;101453.91;;;13.05;100.00
72157;BME280;60035;52.122;5.406;2023-08-07T03:16:25;101448.75;;;13.05;100.00
72157;BME280;60035;52.122;5.406;2023-08-07T03:18:52;101449.66;;;13.04;100.00
72157;BME280;60035;52.122;5.406;2023-08-07T03:21:18;101446.34;;;13.00;100.00
72157;BME280;60035;52.122;5.406;2023-08-07T03:23:45;101442.09;;;12.99;100.00
72157;BME280;60035;52.122;5.406;2023-08-07T03:26:12;101448.16;;;12.97;100.00
72157;BME280;60035;52.122;5.406;2023-08-07T03:28:42;101449.03;;;12.96;100.00
72157;BME280;60035;52.122;5.406;2023-08-07T03:31:08;101454.19;;;12.96;100.00
72157;BME280;60035;52.122;5.406;2023-08-07T03:33:35;101446.53;;;12.94;100.00
72157;BME280;60035;52.122;5.406;2023-08-07T03:36:02;101446.56;;;12.93;100.00
72157;BME280;60035;52.122;5.406;2023-08-07T03:38:28;101455.16;;;12.92;100.00
72157;BME280;60035;52.122;5.406;2023-08-07T03:40:55;101444.06;;;12.91;100.00
72157;BME280;60035;52.122;5.406;2023-08-07T03:43:21;101444.00;;;12.93;100.00
72157;BME280;60035;52.122;5.406;2023-08-07T03:45:54;101444.81;;;12.93;100.00
72157;BME280;60035;52.122;5.406;2023-08-07T03:48:20;101438.84;;;12.93;100.00
72157;BME280;60035;52.122;5.406;2023-08-07T03:50:47;101444.78;;;12.95;100.00
72157;BME280;60035;52.122;5.406;2023-08-07T03:53:13;101449.88;;;12.96;100.00
72157;BME280;60035;52.122;5.406;2023-08-07T03:55:40;101442.16;;;12.96;100.00
72157;BME280;60035;52.122;5.406;2023-08-07T03:58:08;101441.28;;;12.97;100.00
72157;BME280;60035;52.122;5.406;2023-08-07T04:00:34;101450.63;;;13.00;100.00
72157;BME280;60035;52.122;5.406;2023-08-07T04:03:01;101453.19;;;13.00;100.00
72157;BME280;60035;52.122;5.406;2023-08-07T04:05:29;101454.88;;;13.01;100.00
72157;BME280;60035;52.122;5.406;2023-08-07T04:07:55;101440.28;;;13.03;100.00
72157;BME280;60035;52.122;5.406;2023-08-07T04:10:22;101449.66;;;13.04;100.00
72157;BME280;60035;52.122;5.406;2023-08-07T04:12:48;101453.03;;;13.06;100.00
72157;BME280;60035;52.122;5.406;2023-08-07T04:15:16;101447.03;;;13.06;100.00
72157;BME280;60035;52.122;5.406;2023-08-07T04:17:42;101457.28;;;13.07;100.00
72157;BME280;60035;52.122;5.406;2023-08-07T04:20:09;101447.78;;;13.09;100.00
72157;BME280;60035;52.122;5.406;2023-08-07T04:22:36;101452.91;;;13.09;100.00
72157;BME280;60035;52.122;5.406;2023-08-07T04:25:03;101462.28;;;13.12;100.00
72157;BME280;60035;52.122;5.406;2023-08-07T04:27:29;101457.13;;;13.12;100.00
72157;BME280;60035;52.122;5.406;2023-08-07T04:29:56;101458.81;;;13.13;100.00
72157;BME280;60035;52.122;5.406;2023-08-07T04:32:22;101458.78;;;13.14;100.00
72157;BME280;60035;52.122;5.406;2023-08-07T04:34:52;101463.03;;;13.15;100.00
72157;BME280;60035;52.122;5.406;2023-08-07T04:37:18;101469.00;;;13.16;100.00
72157;BME280;60035;52.122;5.406;2023-08-07T04:39:45;101471.53;;;13.17;100.00
72157;BME280;60035;52.122;5.406;2023-08-07T04:42:11;101474.94;;;13.18;100.00
72157;BME280;60035;52.122;5.406;2023-08-07T04:44:38;101484.34;;;13.19;100.00
72157;BME280;60035;52.122;5.406;2023-08-07T04:47:04;101484.34;;;13.19;100.00
72157;BME280;60035;52.122;5.406;2023-08-07T04:49:31;101492.06;;;13.19;100.00
72157;BME280;60035;52.122;5.406;2023-08-07T04:51:58;101491.22;;;13.19;100.00
72157;BME280;60035;52.122;5.406;2023-08-07T04:54:32;101484.34;;;13.19;100.00
72157;BME280;60035;52.122;5.406;2023-08-07T04:56:58;101490.38;;;13.18;100.00
72157;BME280;60035;52.122;5.406;2023-08-07T04:59:25;101489.53;;;13.17;100.00
72157;BME280;60035;52.122;5.406;2023-08-07T05:01:52;101490.38;;;13.18;100.00
72157;BME280;60035;52.122;5.406;2023-08-07T05:04:18;101490.34;;;13.20;100.00
72157;BME280;60035;52.122;5.406;2023-08-07T05:06:47;101487.75;;;13.20;100.00
72157;BME280;60035;52.122;5.406;2023-08-07T05:09:15;101507.41;;;13.22;100.00
72157;BME280;60035;52.122;5.406;2023-08-07T05:11:41;101507.34;;;13.24;100.00
72157;BME280;60035;52.122;5.406;2023-08-07T05:14:08;101526.16;;;13.26;100.00
72157;BME280;60035;52.122;5.406;2023-08-07T05:16:35;101531.34;;;13.24;100.00
72157;BME280;60035;52.122;5.406;2023-08-07T05:19:01;101540.78;;;13.24;100.00
72157;BME280;60035;52.122;5.406;2023-08-07T05:21:28;101527.22;;;13.19;100.00
72157;BME280;60035;52.122;5.406;2023-08-07T05:23:54;101541.81;;;13.18;100.00
72157;BME280;60035;52.122;5.406;2023-08-07T05:26:21;101537.59;;;13.15;100.00
72157;BME280;60035;52.122;5.406;2023-08-07T05:28:48;101536.75;;;13.15;100.00
72157;BME280;60035;52.122;5.406;2023-08-07T05:31:14;101538.53;;;13.13;100.00
72157;BME280;60035;52.122;5.406;2023-08-07T05:33:41;101534.28;;;13.12;100.00
72157;BME280;60035;52.122;5.406;2023-08-07T05:36:07;101533.44;;;13.11;100.00
72157;BME280;60035;52.122;5.406;2023-08-07T05:38:34;101540.28;;;13.12;100.00
72157;BME280;60035;52.122;5.406;2023-08-07T05:41:01;101529.06;;;13.13;100.00
72157;BME280;60035;52.122;5.406;2023-08-07T05:43:28;101541.06;;;13.14;100.00
72157;BME280;60035;52.122;5.406;2023-08-07T05:45:54;101540.22;;;13.14;100.00
72157;BME280;60035;52.122;5.406;2023-08-07T05:48:21;101548.66;;;13.17;100.00
72157;BME280;60035;52.122;5.406;2023-08-07T05:50:47;101551.19;;;13.21;100.00
72157;BME280;60035;52.122;5.406;2023-08-07T05:53:14;101557.09;;;13.23;100.00
72157;BME280;60035;52.122;5.406;2023-08-07T05:55:40;101550.19;;;13.25;100.00
72157;BME280;60035;52.122;5.406;2023-08-07T05:58:08;101556.16;;;13.25;100.00
72157;BME280;60035;52.122;5.406;2023-08-07T06:00:35;101541.50;;;13.29;100.00
72157;BME280;60035;52.122;5.406;2023-08-07T06:03:01;101550.03;;;13.31;100.00
72157;BME280;60035;52.122;5.406;2023-08-07T06:05:28;101553.31;;;13.34;100.00
72157;BME280;60035;52.122;5.406;2023-08-07T06:07:54;101556.69;;;13.38;100.00
72157;BME280;60035;52.122;5.406;2023-08-07T06:10:21;101557.50;;;13.40;100.00
72157;BME280;60035;52.122;5.406;2023-08-07T06:12:47;101562.53;;;13.43;100.00
72157;BME280;60035;52.122;5.406;2023-08-07T06:15:14;101566.69;;;13.47;100.00
72157;BME280;60035;52.122;5.406;2023-08-07T06:17:40;101570.91;;;13.50;100.00
72157;BME280;60035;52.122;5.406;2023-08-07T06:20:08;101573.38;;;13.53;100.00
72157;BME280;60035;52.122;5.406;2023-08-07T06:22:38;101579.25;;;13.58;100.00
72157;BME280;60035;52.122;5.406;2023-08-07T06:25:04;101572.16;;;13.65;100.00
72157;BME280;60035;52.122;5.406;2023-08-07T06:27:33;101575.41;;;13.72;100.00
72157;BME280;60035;52.122;5.406;2023-08-07T06:29:59;101569.25;;;13.77;100.00
72157;BME280;60035;52.122;5.406;2023-08-07T06:32:26;101574.22;;;13.82;100.00
72157;BME280;60035;52.122;5.406;2023-08-07T06:34:53;101578.25;;;13.91;100.00
72157;BME280;60035;52.122;5.406;2023-08-07T06:37:19;101592.59;;;13.98;100.00
72157;BME280;60035;52.122;5.406;2023-08-07T06:39:46;101585.63;;;14.02;100.00
72157;BME280;60035;52.122;5.406;2023-08-07T06:42:15;101589.84;;;14.04;100.00
72157;BME280;60035;52.122;5.406;2023-08-07T06:44:41;101592.25;;;14.09;100.00
72157;BME280;60035;52.122;5.406;2023-08-07T06:47:08;101595.59;;;14.12;100.00
72157;BME280;60035;52.122;5.406;2023-08-07T06:49:36;101588.66;;;14.14;100.00
72157;BME280;60035;52.122;5.406;2023-08-07T06:52:03;101592.88;;;14.17;100.00
72157;BME280;60035;52.122;5.406;2023-08-07T06:54:30;101594.59;;;14.16;100.00
72157;BME280;60035;52.122;5.406;2023-08-07T06:56:56;101596.97;;;14.23;100.00
72157;BME280;60035;52.122;5.406;2023-08-07T06:59:23;101597.13;;;14.45;100.00
72157;BME280;60035;52.122;5.406;2023-08-07T07:01:51;101596.28;;;14.70;100.00
72157;BME280;60035;52.122;5.406;2023-08-07T07:04:18;101599.91;;;14.89;100.00
72157;BME280;60035;52.122;5.406;2023-08-07T07:06:44;101601.94;;;15.05;100.00
72157;BME280;60035;52.122;5.406;2023-08-07T07:09:11;101617.56;;;15.00;100.00
72157;BME280;60035;52.122;5.406;2023-08-07T07:11:43;101602.59;;;14.86;100.00
72157;BME280;60035;52.122;5.406;2023-08-07T07:14:10;101616.22;;;14.64;100.00
72157;BME280;60035;52.122;5.406;2023-08-07T07:16:37;101617.63;;;14.48;100.00
72157;BME280;60035;52.122;5.406;2023-08-07T07:19:05;101631.84;;;14.33;100.00
72157;BME280;60035;52.122;5.406;2023-08-07T07:21:34;101646.56;;;14.29;100.00
72157;BME280;60035;52.122;5.406;2023-08-07T07:24:02;101647.50;;;14.27;100.00
72157;BME280;60035;52.122;5.406;2023-08-07T07:26:28;101652.53;;;14.30;100.00
72157;BME280;60035;52.122;5.406;2023-08-07T07:28:55;101638.47;;;14.40;100.00
72157;BME280;60035;52.122;5.406;2023-08-07T07:31:22;101644.28;;;14.47;100.00
72157;BME280;60035;52.122;5.406;2023-08-07T07:33:48;101640.34;;;14.63;100.00
72157;BME280;60035;52.122;5.406;2023-08-07T07:36:16;101646.56;;;14.83;100.00
72157;BME280;60035;52.122;5.406;2023-08-07T07:38:45;101643.22;;;15.05;100.00
72157;BME280;60035;52.122;5.406;2023-08-07T07:41:16;101649.34;;;15.26;100.00
72157;BME280;60035;52.122;5.406;2023-08-07T07:43:43;101656.19;;;15.27;100.00
72157;BME280;60035;52.122;5.406;2023-08-07T07:46:10;101652.88;;;15.23;100.00
72157;BME280;60035;52.122;5.406;2023-08-07T07:48:37;101661.72;;;15.16;100.00
72157;BME280;60035;52.122;5.406;2023-08-07T07:51:04;101661.16;;;15.08;100.00
72157;BME280;60035;52.122;5.406;2023-08-07T07:53:30;101670.34;;;14.91;100.00
72157;BME280;60035;52.122;5.406;2023-08-07T07:55:57;101676.75;;;14.79;100.00
72157;BME280;60035;52.122;5.406;2023-08-07T07:58:24;101674.53;;;14.69;100.00
72157;BME280;60035;52.122;5.406;2023-08-07T08:00:50;101675.66;;;14.60;100.00
72157;BME280;60035;52.122;5.406;2023-08-07T08:03:20;101676.63;;;14.56;100.00
72157;BME280;60035;52.122;5.406;2023-08-07T08:05:51;101680.22;;;14.52;100.00
72157;BME280;60035;52.122;5.406;2023-08-07T08:08:18;101684.16;;;14.63;100.00
72157;BME280;60035;52.122;5.406;2023-08-07T08:10:45;101682.03;;;14.75;100.00
72157;BME280;60035;52.122;5.406;2023-08-07T08:13:15;101688.13;;;14.74;100.00
72157;BME280;60035;52.122;5.406;2023-08-07T08:15:42;101693.41;;;14.69;100.00
72157;BME280;60035;52.122;5.406;2023-08-07T08:18:09;101690.91;;;14.68;100.00
72157;BME280;60035;52.122;5.406;2023-08-07T08:20:36;101703.66;;;14.71;100.00
72157;BME280;60035;52.122;5.406;2023-08-07T08:23:04;101710.31;;;14.78;100.00
72157;BME280;60035;52.122;5.406;2023-08-07T08:25:31;101710.22;;;14.81;100.00
72157;BME280;60035;52.122;5.406;2023-08-07T08:27:59;101710.31;;;14.78;100.00
72157;BME280;60035;52.122;5.406;2023-08-07T08:30:27;101711.03;;;14.83;100.00
72157;BME280;60035;52.122;5.406;2023-08-07T08:32:54;101717.47;;;14.95;100.00
72157;BME280;60035;52.122;5.406;2023-08-07T08:35:21;101713.50;;;15.11;100.00
72157;BME280;60035;52.122;5.406;2023-08-07T08:37:47;101710.31;;;15.28;100.00
72157;BME280;60035;52.122;5.406;2023-08-07T08:40:14;101710.72;;;15.41;100.00
72157;BME280;60035;52.122;5.406;2023-08-07T08:42:44;101705.72;;;15.60;100.00
72157;BME280;60035;52.122;5.406;2023-08-07T08:45:13;101710.91;;;15.84;100.00
72157;BME280;60035;52.122;5.406;2023-08-07T08:47:41;101701.00;;;15.95;100.00
72157;BME280;60035;52.122;5.406;2023-08-07T08:50:09;101719.81;;;15.99;100.00
72157;BME280;60035;52.122;5.406;2023-08-07T08:52:40;101722.38;;;15.75;100.00
72157;BME280;60035;52.122;5.406;2023-08-07T08:55:08;101720.66;;;15.52;100.00
72157;BME280;60035;52.122;5.406;2023-08-07T08:57:35;101730.69;;;15.36;100.00
72157;BME280;60035;52.122;5.406;2023-08-07T09:00:03;101744.19;;;15.19;100.00
72157;BME280;60035;52.122;5.406;2023-08-07T09:02:51;101748.84;;;15.08;100.00
72157;BME280;60035;52.122;5.406;2023-08-07T09:05:19;101746.75;;;14.94;100.00
72157;BME280;60035;52.122;5.406;2023-08-07T09:07:47;101744.06;;;14.97;100.00
72157;BME280;60035;52.122;5.406;2023-08-07T09:10:15;101745.63;;;15.01;100.00
72157;BME280;60035;52.122;5.406;2023-08-07T09:12:49;101747.09;;;15.10;100.00
72157;BME280;60035;52.122;5.406;2023-08-07T09:15:19;101743.06;;;15.26;100.00
72157;BME280;60035;52.122;5.406;2023-08-07T09:17:47;101754.97;;;15.30;100.00
72157;BME280;60035;52.122;5.406;2023-08-07T09:20:14;101752.53;;;15.51;100.00
72157;BME280;60035;52.122;5.406;2023-08-07T09:22:41;101749.78;;;15.79;100.00
72157;BME280;60035;52.122;5.406;2023-08-07T09:25:08;101759.00;;;16.10;100.00
72157;BME280;60035;52.122;5.406;2023-08-07T09:27:39;101752.19;;;16.31;100.00
72157;BME280;60035;52.122;5.406;2023-08-07T09:30:07;101750.56;;;16.51;100.00
72157;BME280;60035;52.122;5.406;2023-08-07T09:32:36;101757.00;;;16.61;100.00
72157;BME280;60035;52.122;5.406;2023-08-07T09:35:03;101764.97;;;16.57;100.00
72157;BME280;60035;52.122;5.406;2023-08-07T09:37:36;101755.81;;;16.70;100.00
72157;BME280;60035;52.122;5.406;2023-08-07T09:40:03;101755.56;;;16.76;100.00
72157;BME280;60035;52.122;5.406;2023-08-07T09:42:31;101752.31;;;16.71;100.00
72157;BME280;60035;52.122;5.406;2023-08-07T09:45:02;101762.00;;;16.66;100.00
72157;BME280;60035;52.122;5.406;2023-08-07T09:47:40;101762.97;;;16.63;100.00
72157;BME280;60035;52.122;5.406;2023-08-07T09:50:15;101764.06;;;16.58;100.00
72157;BME280;60035;52.122;5.406;2023-08-07T09:52:47;101764.84;;;16.60;100.00
72157;BME280;60035;52.122;5.406;2023-08-07T09:55:14;101774.09;;;16.65;100.00
72157;BME280;60035;52.122;5.406;2023-08-07T09:57:43;101780.84;;;16.70;100.00
72157;BME280;60035;52.122;5.406;2023-08-07T10:00:11;101773.72;;;16.75;100.00
72157;BME280;60035;52.122;5.406;2023-08-07T10:02:43;101784.53;;;16.85;100.00
72157;BME280;60035;52.122;5.406;2023-08-07T10:05:10;101788.53;;;16.71;100.00
72157;BME280;60035;52.122;5.406;2023-08-07T10:07:37;101794.06;;;16.62;100.00
72157;BME280;60035;52.122;5.406;2023-08-07T10:10:05;101792.16;;;16.45;100.00
72157;BME280;60035;52.122;5.406;2023-08-07T10:12:33;101803.69;;;16.36;100.00
72157;BME280;60035;52.122;5.406;2023-08-07T10:15:00;101804.03;;;16.27;100.00
72157;BME280;60035;52.122;5.406;2023-08-07T10:17:28;101799.66;;;16.29;100.00
72157;BME280;60035;52.122;5.406;2023-08-07T10:19:56;101807.69;;;16.21;100.00
72157;BME280;60035;52.122;5.406;2023-08-07T10:22:29;101798.69;;;16.31;100.00
72157;BME280;60035;52.122;5.406;2023-08-07T10:24:57;101803.56;;;16.61;100.00
72157;BME280;60035;52.122;5.406;2023-08-07T10:27:26;101796.09;;;16.76;100.00
72157;BME280;60035;52.122;5.406;2023-08-07T10:29:55;101798.03;;;16.93;100.00
72157;BME280;60035;52.122;5.406;2023-08-07T10:32:25;101795.53;;;17.12;100.00
72157;BME280;60035;52.122;5.406;2023-08-07T10:34:52;101789.06;;;17.22;100.00
72157;BME280;60035;52.122;5.406;2023-08-07T10:37:41;101788.81;;;17.28;100.00
72157;BME280;60035;52.122;5.406;2023-08-07T10:40:10;101795.88;;;17.64;100.00
72157;BME280;60035;52.122;5.406;2023-08-07T10:42:59;101795.78;;;17.66;100.00
72157;BME280;60035;52.122;5.406;2023-08-07T10:45:27;101796.25;;;17.76;100.00
72157;BME280;60035;52.122;5.406;2023-08-07T10:48:07;101797.22;;;17.73;100.00
72157;BME280;60035;52.122;5.406;2023-08-07T10:53:40;101799.13;;;17.89;100.00
72157;BME280;60035;52.122;5.406;2023-08-07T10:56:30;101801.38;;;17.96;100.00
72157;BME280;60035;52.122;5.406;2023-08-07T10:58:58;101808.41;;;18.13;100.00
72157;BME280;60035;52.122;5.406;2023-08-07T11:03:58;101808.91;;;18.22;99.50
72157;BME280;60035;52.122;5.406;2023-08-07T11:06:30;101812.41;;;18.21;100.00
72157;BME280;60035;52.122;5.406;2023-08-07T11:08:58;101813.03;;;18.26;98.35
72157;BME280;60035;52.122;5.406;2023-08-07T11:11:30;101827.47;;;18.12;97.50
72157;BME280;60035;52.122;5.406;2023-08-07T11:14:15;101818.28;;;18.05;95.78
72157;BME280;60035;52.122;5.406;2023-08-07T11:16:42;101828.91;;;17.99;97.18
72157;BME280;60035;52.122;5.406;2023-08-07T11:19:10;101833.84;;;17.85;97.27
72157;BME280;60035;52.122;5.406;2023-08-07T11:21:37;101840.22;;;17.77;98.87
72157;BME280;60035;52.122;5.406;2023-08-07T11:24:04;101838.34;;;17.60;98.48
72157;BME280;60035;52.122;5.406;2023-08-07T11:26:31;101830.25;;;17.47;100.00
72157;BME280;60035;52.122;5.406;2023-08-07T11:28:58;101834.81;;;17.42;97.94
72157;BME280;60035;52.122;5.406;2023-08-07T11:31:25;101823.88;;;17.75;98.14
72157;BME280;60035;52.122;5.406;2023-08-07T11:33:53;101823.69;;;18.20;96.15
72157;BME280;60035;52.122;5.406;2023-08-07T11:36:20;101828.69;;;18.61;96.60
72157;BME280;60035;52.122;5.406;2023-08-07T11:38:47;101829.75;;;19.11;96.40
72157;BME280;60035;52.122;5.406;2023-08-07T11:41:16;101829.81;;;19.44;91.22
72157;BME280;60035;52.122;5.406;2023-08-07T11:43:42;101830.28;;;19.18;90.71
72157;BME280;60035;52.122;5.406;2023-08-07T11:46:11;101839.56;;;18.87;88.23
72157;BME280;60035;52.122;5.406;2023-08-07T11:48:39;101830.63;;;18.75;88.64
72157;BME280;60035;52.122;5.406;2023-08-07T11:51:07;101836.03;;;18.88;89.16
72157;BME280;60035;52.122;5.406;2023-08-07T11:53:37;101826.88;;;19.17;89.98
72157;BME280;60035;52.122;5.406;2023-08-07T11:56:06;101820.38;;;18.91;81.83
72157;BME280;60035;52.122;5.406;2023-08-07T11:58:40;101818.94;;;18.84;85.82
72157;BME280;60035;52.122;5.406;2023-08-07T12:01:12;101824.66;;;18.73;86.23
72157;BME280;60035;52.122;5.406;2023-08-07T12:03:43;101822.53;;;18.44;86.50
72157;BME280;60035;52.122;5.406;2023-08-07T12:06:09;101835.31;;;18.67;88.95
72157;BME280;60035;52.122;5.406;2023-08-07T12:08:37;101819.44;;;19.09;83.31
72157;BME280;60035;52.122;5.406;2023-08-07T12:11:07;101824.59;;;19.44;81.57
72157;BME280;60035;52.122;5.406;2023-08-07T12:13:43;101817.38;;;19.85;79.70
72157;BME280;60035;52.122;5.406;2023-08-07T12:16:12;101813.69;;;20.21;75.72
72157;BME280;60035;52.122;5.406;2023-08-07T12:18:49;101818.72;;;20.24;71.53
72157;BME280;60035;52.122;5.406;2023-08-07T12:21:21;101813.09;;;20.31;74.72
72157;BME280;60035;52.122;5.406;2023-08-07T12:23:50;101818.38;;;20.46;70.90
72157;BME280;60035;52.122;5.406;2023-08-07T12:26:17;101811.75;;;20.40;72.62
72157;BME280;60035;52.122;5.406;2023-08-07T12:28:44;101809.13;;;20.72;68.66
72157;BME280;60035;52.122;5.406;2023-08-07T12:31:11;101819.75;;;20.68;68.05
72157;BME280;60035;52.122;5.406;2023-08-07T12:33:38;101816.78;;;20.43;67.34
72157;BME280;60035;52.122;5.406;2023-08-07T12:36:04;101817.63;;;19.96;65.85
72157;BME280;60035;52.122;5.406;2023-08-07T12:38:44;101819.03;;;19.86;67.47
72157;BME280;60035;52.122;5.406;2023-08-07T12:41:11;101819.91;;;20.02;69.82
72157;BME280;60035;52.122;5.406;2023-08-07T12:43:40;101814.38;;;20.24;69.31
72157;BME280;60035;52.122;5.406;2023-08-07T12:46:07;101818.25;;;20.63;65.71
72157;BME280;60035;52.122;5.406;2023-08-07T12:48:36;101821.91;;;20.45;66.26
72157;BME280;60035;52.122;5.406;2023-08-07T12:51:03;101820.22;;;20.76;60.65
72157;BME280;60035;52.122;5.406;2023-08-07T12:53:29;101816.50;;;20.80;62.74